Paya Lebar Air Base
WSAP : now visible

Airfield :











YOU CAN JOIN US ON...

 
LOGIN :

Register | Disclaimer

   EN    FR    IT 

 









Legend :    VFR   Marginal VFR   IFR   Intensive IFR   Very Intensive IFR
Visi :
Ceiling :
>= 8 km
>= 3000ft
5 to 8 km
1000 to 3000 ft
1500m to 5 km
500 to 1000 ft
800 to 1500m
200 to 500 ft
< 800m
< 200 ft
Symbols :   Thunderstorms  Fog  Heavy snow  Heavy precipitations  Wind > 20 kt






- Airport Elevation : 65 ft
- IATA code : QPG


WSAP - Paya Lebar Air Base

CURRENT METAR :
  • 250200Z 23001KT 5000 -TSRA FEW010 FEW014CB FEW015TCU BKN150 23/22 Q1013 RESHRA

EXPIRED METARs :
  • 250118Z 22004KT 1000 +TSRA FEW010 FEW013CB SCT015TCU 23/22 Q1013
  • 250030Z 26003KT 1000 +TSRA FEW010 FEW013CB SCT015TCU 24/22 Q1011

TAF TAF WSAP
Valid from the 25 at 00:00 until the 26 at 06:00 UTC


242300Z 2500/2606 20008KT 9999 FEW015 BKN020
TEMPO 2500/2503 3000 TSRA FEW012CB BKN015
WSJC FIR / Asia



MET'MAP, your aeronautical weather chart ! - Copyright ORBIFLY December 2007 - Disclaimer

ORBIFLY MET'MAP TEAM :

Programming & Development : Alexandra Zaïnal
Original concept : Baudouin d'Aumeries
Technical & hardware support : Manuel Goepfert
Assistance : Marc-Olivier Méhu




SOURCES & CREDITS :

   NOAA       Earth
Advisory